createdAt,value
2019-04-25T00:02:13.140Z,100176.69
2019-04-25T00:04:43.479Z,100178.44
2019-04-25T00:07:13.030Z,100181.05
2019-04-25T00:09:51.901Z,100175.06
2019-04-25T00:12:22.327Z,100177.63
2019-04-25T00:14:53.772Z,100176.39
2019-04-25T00:17:23.997Z,100172.98
2019-04-25T00:19:53.635Z,100176.37
2019-04-25T00:22:53.255Z,100182.36
2019-04-25T00:25:45.124Z,100178.48
2019-04-25T00:28:11.897Z,100178.90
2019-04-25T00:30:43.443Z,100184.89
2019-04-25T00:33:12.733Z,100183.20
2019-04-25T00:35:44.438Z,100169.06
2019-04-25T00:38:14.681Z,100164.34
2019-04-25T00:40:44.725Z,100153.23
2019-04-25T00:43:14.399Z,100137.34
2019-04-25T00:45:44.565Z,100143.20
2019-04-25T00:48:15.056Z,100139.33
2019-04-25T00:50:44.645Z,100138.02
2019-04-25T00:53:14.167Z,100130.64
2019-04-25T00:55:44.326Z,100144.77
2019-04-25T00:58:26.432Z,100154.25
2019-04-25T01:01:03.848Z,100158.10
2019-04-25T01:03:33.789Z,100153.48
2019-04-25T01:06:03.953Z,100149.52
2019-04-25T01:08:33.458Z,100152.54
2019-04-25T01:11:02.995Z,100154.71
2019-04-25T01:13:32.490Z,100156.02
2019-04-25T01:16:04.018Z,100166.75
2019-04-25T01:18:33.698Z,100161.61
2019-04-25T01:21:04.456Z,100159.52
2019-04-25T01:23:34.062Z,100153.17
2019-04-25T01:26:03.564Z,100147.22
2019-04-25T01:28:33.602Z,100149.77
2019-04-25T01:31:05.782Z,100157.46
2019-04-25T01:33:35.298Z,100153.62
2019-04-25T01:36:13.342Z,100160.45
2019-04-25T01:38:58.751Z,100165.64
2019-04-25T01:41:45.679Z,100161.83
2019-04-25T01:44:37.243Z,100162.32
2019-04-25T01:47:06.845Z,100162.30
2019-04-25T01:49:36.350Z,100161.45
2019-04-25T01:52:05.937Z,100160.16
2019-04-25T01:54:35.434Z,100157.15
2019-04-25T01:57:05.529Z,100144.79
2019-04-25T01:59:35.108Z,100133.64
2019-04-25T02:02:06.824Z,100123.80
2019-04-25T02:04:37.625Z,100113.50
2019-04-25T02:07:07.144Z,100114.78
2019-04-25T02:09:36.716Z,100118.61
2019-04-25T02:12:15.526Z,100111.27
2019-04-25T02:14:45.178Z,100102.23
2019-04-25T02:17:15.271Z,100109.48
2019-04-25T02:19:44.784Z,100115.95
2019-04-25T02:22:14.609Z,100108.30
2019-04-25T02:24:44.152Z,100109.58
2019-04-25T02:27:13.719Z,100114.75
2019-04-25T02:29:44.698Z,100107.09
2019-04-25T02:32:15.315Z,100100.28
2019-04-25T02:34:45.697Z,100108.89
2019-04-25T02:37:16.287Z,100125.55
2019-04-25T02:39:45.797Z,100128.55
2019-04-25T02:42:16.788Z,100147.73
2019-04-25T02:44:56.160Z,100151.14
2019-04-25T02:47:34.246Z,100158.40
2019-04-25T02:50:28.134Z,100161.39
2019-04-25T02:53:09.460Z,100163.50
2019-04-25T02:55:38.980Z,100169.06
2019-04-25T02:58:10.197Z,100172.98
2019-04-25T03:00:56.550Z,100185.77
2019-04-25T03:03:11.247Z,100192.98
2019-04-25T03:05:40.768Z,100194.65
2019-04-25T03:08:10.673Z,100204.36
2019-04-25T03:10:40.161Z,100203.86
2019-04-25T03:13:11.861Z,100204.31
2019-04-25T03:15:40.901Z,100195.75
2019-04-25T03:18:12.419Z,100203.00
2019-04-25T03:20:48.487Z,100201.70
2019-04-25T03:23:37.142Z,100199.14
2019-04-25T03:26:07.514Z,100196.15
2019-04-25T03:28:37.209Z,100204.72
2019-04-25T03:31:13.377Z,100205.54
2019-04-25T03:33:38.565Z,100203.44
2019-04-25T03:36:09.224Z,100201.30
2019-04-25T03:38:38.820Z,100201.77
2019-04-25T03:41:08.691Z,100198.79
2019-04-25T03:43:38.199Z,100209.93
2019-04-25T03:46:08.263Z,100205.70
2019-04-25T03:48:37.859Z,100201.48
2019-04-25T03:51:08.021Z,100202.39
2019-04-25T03:53:38.518Z,100206.26
2019-04-25T03:56:08.674Z,100202.02
2019-04-25T03:58:38.413Z,100210.55
2019-04-25T04:01:09.278Z,100211.38
2019-04-25T04:03:40.002Z,100218.22
2019-04-25T04:06:09.884Z,100224.60
2019-04-25T04:08:40.364Z,100222.06
2019-04-25T04:11:10.116Z,100222.02
2019-04-25T04:13:39.764Z,100218.58
2019-04-25T04:16:09.289Z,100226.29
2019-04-25T04:18:44.169Z,100222.89
2019-04-25T04:21:30.612Z,100229.30
2019-04-25T04:24:09.649Z,100220.78
2019-04-25T04:26:39.172Z,100218.23
2019-04-25T04:29:08.693Z,100219.97
2019-04-25T04:31:38.192Z,100224.70
2019-04-25T04:34:08.672Z,100228.55
2019-04-25T04:36:38.187Z,100232.77
2019-04-25T04:39:09.048Z,100240.87
2019-04-25T04:41:39.187Z,100255.80
2019-04-25T04:44:08.721Z,100268.60
2019-04-25T04:46:38.266Z,100264.33
2019-04-25T04:49:08.692Z,100274.12
2019-04-25T04:51:39.213Z,100274.16
2019-04-25T04:54:09.474Z,100278.91
2019-04-25T04:56:39.046Z,100274.67
2019-04-25T04:59:08.569Z,100273.36
2019-04-25T05:01:56.258Z,100281.50
2019-04-25T05:04:30.608Z,100284.53
2019-04-25T05:07:18.253Z,100285.38
2019-04-25T05:09:47.828Z,100289.25
2019-04-25T05:12:17.510Z,100283.25
2019-04-25T05:14:47.111Z,100286.22
2019-04-25T05:17:17.471Z,100290.88
2019-04-25T05:19:47.106Z,100291.71
2019-04-25T05:22:16.892Z,100300.28
2019-04-25T05:24:46.545Z,100305.46
2019-04-25T05:27:30.585Z,100308.84
2019-04-25T05:29:47.370Z,100304.98
2019-04-25T05:32:17.304Z,100302.79
2019-04-25T05:34:49.335Z,100301.97
2019-04-25T05:37:19.662Z,100305.41
2019-04-25T05:39:49.380Z,100303.21
2019-04-25T05:42:25.729Z,100310.81
2019-04-25T05:44:58.101Z,100317.64
2019-04-25T05:47:27.750Z,100323.56
2019-04-25T05:49:57.258Z,100322.28
2019-04-25T05:52:26.792Z,100323.44
2019-04-25T05:54:56.332Z,100327.20
2019-04-25T05:57:26.084Z,100322.16
2019-04-25T05:59:55.636Z,100322.61
2019-04-25T06:02:25.669Z,100321.33
2019-04-25T06:04:56.060Z,100269.44
2019-04-25T06:07:26.686Z,100327.42
2019-04-25T06:10:10.589Z,100330.81
2019-04-25T06:12:48.103Z,100323.86
2019-04-25T06:15:19.981Z,100314.23
2019-04-25T06:18:07.529Z,100330.11
2019-04-25T06:20:37.455Z,100328.66
2019-04-25T06:23:24.579Z,100332.41
2019-04-25T06:25:54.766Z,100325.58
2019-04-25T06:28:26.233Z,100326.44
2019-04-25T06:30:56.880Z,100330.91
2019-04-25T06:33:27.097Z,100324.36
2019-04-25T06:35:56.951Z,100328.05
2019-04-25T06:38:27.521Z,100330.55
2019-04-25T06:40:57.990Z,100330.47
2019-04-25T06:43:28.009Z,100336.60
2019-04-25T06:46:31.788Z,100344.51
2019-04-25T06:49:13.396Z,100339.64
2019-04-25T06:51:51.284Z,100340.14
2019-04-25T06:54:21.940Z,100347.08
2019-04-25T06:56:53.561Z,100352.41
2019-04-25T06:59:25.921Z,100357.54
2019-04-25T07:01:56.523Z,100367.61
2019-04-25T07:04:27.008Z,100361.48
2019-04-25T07:07:09.354Z,100355.58
2019-04-25T07:09:29.655Z,100363.02
2019-04-25T07:11:59.854Z,100362.17
2019-04-25T07:14:29.583Z,100357.55
2019-04-25T07:16:59.163Z,100367.32
2019-04-25T07:19:28.671Z,100358.91
2019-04-25T07:21:58.190Z,100353.26
2019-04-25T07:24:27.696Z,100355.95
2019-04-25T07:27:15.245Z,100366.77
2019-04-25T07:30:04.066Z,100365.23
2019-04-25T07:32:42.107Z,100363.81
2019-04-25T07:35:13.502Z,100362.96
2019-04-25T07:37:44.120Z,100363.02
2019-04-25T07:40:14.252Z,100360.97
2019-04-25T07:42:43.982Z,100362.08
2019-04-25T07:45:14.213Z,100363.36
2019-04-25T07:47:44.196Z,100372.03
2019-04-25T07:50:15.374Z,100368.52
2019-04-25T07:52:44.909Z,100375.67
2019-04-25T07:55:14.610Z,100380.09
2019-04-25T07:57:44.378Z,100378.20
2019-04-25T08:00:15.347Z,100374.50
2019-04-25T08:02:45.916Z,100372.64
2019-04-25T08:05:16.796Z,100367.39
2019-04-25T08:07:46.301Z,100365.30
2019-04-25T08:10:17.099Z,100375.22
2019-04-25T08:12:47.471Z,100353.41
2019-04-25T08:15:36.345Z,100356.95
2019-04-25T08:18:09.407Z,100353.41
2019-04-25T08:20:40.074Z,100375.55
2019-04-25T08:23:10.829Z,100366.37
2019-04-25T08:25:40.657Z,100362.67
2019-04-25T08:28:10.303Z,100353.47
2019-04-25T08:30:39.831Z,100349.16
2019-04-25T08:33:09.327Z,100361.20
2019-04-25T08:35:38.954Z,100356.36
2019-04-25T08:38:08.470Z,100354.59
2019-04-25T08:40:38.995Z,100363.44
2019-04-25T08:43:08.610Z,100368.98
2019-04-25T08:45:38.473Z,100366.59
2019-04-25T08:48:08.019Z,100381.42
2019-04-25T08:50:46.356Z,100385.08
2019-04-25T08:53:15.947Z,100399.55
2019-04-25T08:56:03.808Z,100401.50
2019-04-25T08:59:03.658Z,100399.04
2019-04-25T09:02:03.915Z,100399.16
2019-04-25T09:04:40.109Z,100402.23
2019-04-25T09:07:09.942Z,100411.20
2019-04-25T09:09:39.450Z,100413.44
2019-04-25T09:12:09.013Z,100408.94
2019-04-25T09:14:39.027Z,100405.12
2019-04-25T09:17:08.658Z,100408.64
2019-04-25T09:19:38.483Z,100411.19
2019-04-25T09:22:08.134Z,100421.00
2019-04-25T09:24:38.755Z,100420.55
2019-04-25T09:27:09.688Z,100410.39
2019-04-25T09:29:39.200Z,100411.25
2019-04-25T09:32:08.807Z,100408.78
2019-04-25T09:34:38.324Z,100398.38
2019-04-25T09:37:07.935Z,100398.00
2019-04-25T09:40:05.838Z,100404.06
2019-04-25T09:42:35.740Z,100403.84
2019-04-25T09:45:26.435Z,100399.28
2019-04-25T09:47:58.912Z,100401.44
2019-04-25T09:50:38.198Z,100346.28
2019-04-25T09:53:20.787Z,100379.59
2019-04-25T09:55:49.201Z,100386.94
2019-04-25T09:58:25.752Z,100392.63
2019-04-25T10:00:59.592Z,100394.81
2019-04-25T10:03:29.110Z,100401.50
2019-04-25T10:05:58.640Z,100412.73
2019-04-25T10:08:28.245Z,100411.45
2019-04-25T10:10:57.860Z,100414.38
2019-04-25T10:13:27.462Z,100410.67
2019-04-25T10:16:08.513Z,100425.53
2019-04-25T10:18:39.259Z,100414.14
2019-04-25T10:21:11.135Z,100414.05
2019-04-25T10:23:42.101Z,100421.77
2019-04-25T10:26:13.096Z,100422.34
2019-04-25T10:28:44.039Z,100413.80
2019-04-25T10:31:14.320Z,100422.34
2019-04-25T10:33:45.811Z,100431.30
2019-04-25T10:36:15.088Z,100423.27
2019-04-25T10:39:00.147Z,100427.00
2019-04-25T10:41:16.261Z,100430.34
2019-04-25T10:43:48.250Z,100428.80
2019-04-25T10:46:18.221Z,100408.38
2019-04-25T10:48:48.042Z,100427.81
2019-04-25T10:51:17.557Z,100420.17
2019-04-25T10:53:47.113Z,100417.77
2019-04-25T10:56:16.632Z,100410.22
2019-04-25T10:58:46.731Z,100404.55
2019-04-25T11:01:17.298Z,100407.92
2019-04-25T11:03:56.115Z,100405.02
2019-04-25T11:06:28.678Z,100399.00
2019-04-25T11:08:58.202Z,100398.04
2019-04-25T11:11:28.012Z,100395.95
2019-04-25T11:13:58.723Z,100390.59
2019-04-25T11:16:28.320Z,100398.57
2019-04-25T11:18:57.867Z,100392.36
2019-04-25T11:21:27.461Z,100392.28
2019-04-25T11:23:57.147Z,100392.71
2019-04-25T11:26:26.946Z,100394.25
2019-04-25T11:28:57.154Z,100396.66
2019-04-25T11:31:33.538Z,100387.78
2019-04-25T11:34:03.682Z,100389.70
2019-04-25T11:36:34.139Z,100387.62
2019-04-25T11:39:28.816Z,100394.17
2019-04-25T11:41:58.368Z,100386.52
2019-04-25T11:44:28.149Z,100390.58
2019-04-25T11:46:58.790Z,100388.77
2019-04-25T11:49:28.343Z,100381.20
2019-04-25T11:51:58.183Z,100387.37
2019-04-25T11:54:27.730Z,100383.30
2019-04-25T11:56:57.363Z,100384.21
2019-04-25T11:59:27.076Z,100385.14
2019-04-25T12:01:57.372Z,100393.83
2019-04-25T12:04:27.105Z,100376.86
2019-04-25T12:06:56.677Z,100374.26
2019-04-25T12:09:26.302Z,100372.47
2019-04-25T12:11:56.056Z,100368.41
2019-04-25T12:14:25.641Z,100367.09
2019-04-25T12:16:56.255Z,100366.33
2019-04-25T12:19:34.997Z,100362.32
2019-04-25T12:21:58.213Z,100362.83
2019-04-25T12:24:27.906Z,100355.05
2019-04-25T12:26:57.514Z,100357.32
2019-04-25T12:29:27.069Z,100353.72
2019-04-25T12:31:56.562Z,100355.08
2019-04-25T12:34:26.091Z,100343.44
2019-04-25T12:36:55.751Z,100344.29
2019-04-25T12:39:25.351Z,100349.28
2019-04-25T12:41:56.055Z,100342.30
2019-04-25T12:45:04.085Z,100339.73
2019-04-25T12:47:35.159Z,100345.30
2019-04-25T12:50:05.350Z,100337.77
2019-04-25T12:52:34.950Z,100346.36
2019-04-25T12:55:05.336Z,100339.39
2019-04-25T12:57:34.836Z,100333.94
2019-04-25T13:00:05.819Z,100336.44
2019-04-25T13:02:36.510Z,100330.08
2019-04-25T13:05:07.111Z,100330.08
2019-04-25T13:07:37.182Z,100326.83
2019-04-25T13:10:07.072Z,100322.34
2019-04-25T13:12:36.583Z,100324.06
2019-04-25T13:15:06.367Z,100324.11
2019-04-25T13:17:37.364Z,100321.14
2019-04-25T13:20:07.589Z,100317.64
2019-04-25T13:22:37.314Z,100319.88
2019-04-25T13:25:08.424Z,100316.89
2019-04-25T13:27:47.609Z,100317.23
2019-04-25T13:30:36.161Z,100313.46
2019-04-25T13:36:23.361Z,100312.87
2019-04-25T13:38:54.071Z,100306.91
2019-04-25T13:41:25.476Z,100283.52
2019-04-25T13:43:55.089Z,100302.45
2019-04-25T13:46:27.259Z,100306.19
2019-04-25T13:48:55.960Z,100291.92
2019-04-25T13:51:26.190Z,100282.56
2019-04-25T13:53:55.780Z,100277.28
2019-04-25T13:56:26.535Z,100279.00
2019-04-25T13:58:56.584Z,100284.07
2019-04-25T14:01:26.124Z,100278.63
2019-04-25T14:03:56.904Z,100272.22
2019-04-25T14:06:26.485Z,100263.22
2019-04-25T14:08:56.208Z,100265.11
2019-04-25T14:11:26.012Z,100247.12
2019-04-25T14:13:55.537Z,100245.22
2019-04-25T14:16:54.589Z,100241.08
2019-04-25T14:19:41.938Z,100236.11
2019-04-25T14:22:21.020Z,100236.86
2019-04-25T14:24:50.861Z,100234.48
2019-04-25T14:27:24.027Z,100233.24
2019-04-25T14:29:54.326Z,100223.73
2019-04-25T14:32:26.163Z,100213.50
2019-04-25T14:34:55.289Z,100212.66
2019-04-25T14:37:29.252Z,100205.19
2019-04-25T14:39:56.054Z,100204.05
2019-04-25T14:42:26.446Z,100194.90
2019-04-25T14:44:56.132Z,100187.91
2019-04-25T14:47:25.668Z,100184.97
2019-04-25T14:49:55.587Z,100187.75
2019-04-25T14:52:25.945Z,100191.83
2019-04-25T14:55:13.205Z,100178.28
2019-04-25T14:57:42.901Z,100183.83
2019-04-25T15:00:21.693Z,100193.14
2019-04-25T15:02:54.251Z,100189.91
2019-04-25T15:05:23.485Z,100179.37
2019-04-25T15:07:52.963Z,100177.38
2019-04-25T15:10:23.088Z,100173.38
2019-04-25T15:12:52.678Z,100173.24
2019-04-25T15:15:22.356Z,100176.14
2019-04-25T15:17:52.973Z,100168.78
2019-04-25T15:20:22.587Z,100169.86
2019-04-25T15:22:52.124Z,100169.86
2019-04-25T15:25:21.645Z,100161.29
2019-04-25T15:27:51.175Z,100153.19
2019-04-25T15:30:29.252Z,100158.06
2019-04-25T15:32:57.841Z,100157.19
2019-04-25T15:35:37.140Z,100160.42
2019-04-25T15:38:12.365Z,100156.96
2019-04-25T15:40:51.174Z,100153.95
2019-04-25T15:43:31.416Z,100152.86
2019-04-25T15:46:06.100Z,100139.92
2019-04-25T15:48:35.646Z,100134.07
2019-04-25T15:51:05.166Z,100130.29
2019-04-25T15:53:35.004Z,100134.58
2019-04-25T15:56:04.656Z,100140.95
2019-04-25T15:58:34.171Z,100144.31
2019-04-25T16:01:05.092Z,100144.39
2019-04-25T16:03:35.217Z,100142.55
2019-04-25T16:06:04.889Z,100145.66
2019-04-25T16:08:35.110Z,100139.80
2019-04-25T16:11:04.892Z,100138.59
2019-04-25T16:13:34.508Z,100135.34
2019-04-25T16:16:04.127Z,100138.02
2019-04-25T16:18:33.636Z,100135.41
2019-04-25T16:21:03.657Z,100131.95
2019-04-25T16:23:34.286Z,100136.44
2019-04-25T16:26:05.985Z,100132.92
2019-04-25T16:28:36.069Z,100129.08
2019-04-25T16:31:07.431Z,100126.69
2019-04-25T16:33:37.762Z,100121.06
2019-04-25T16:36:09.211Z,100121.64
2019-04-25T16:38:39.045Z,100123.45
2019-04-25T16:41:08.774Z,100121.86
2019-04-25T16:43:41.569Z,100115.96
2019-04-25T16:46:11.728Z,100120.05
2019-04-25T16:48:41.262Z,100117.64
2019-04-25T16:51:11.397Z,100114.70
2019-04-25T16:53:41.007Z,100102.03
2019-04-25T16:56:11.559Z,100119.89
2019-04-25T16:58:41.148Z,100114.45
2019-04-25T17:01:12.765Z,100111.00
2019-04-25T17:03:43.133Z,100114.16
2019-04-25T17:06:12.746Z,100106.97
2019-04-25T17:08:42.276Z,100107.76
2019-04-25T17:11:12.191Z,100105.21
2019-04-25T17:13:47.908Z,100099.94
2019-04-25T17:16:35.418Z,100099.03
2019-04-25T17:19:11.273Z,100090.69
2019-04-25T17:21:40.777Z,100089.14
2019-04-25T17:24:10.325Z,100092.00
2019-04-25T17:26:39.839Z,100080.38
2019-04-25T17:29:13.523Z,100083.42
2019-04-25T17:31:54.489Z,100084.90
2019-04-25T17:34:31.788Z,100073.20
2019-04-25T17:37:15.176Z,100077.17
2019-04-25T17:39:49.310Z,100076.78
2019-04-25T17:42:18.833Z,100080.66
2019-04-25T17:44:48.336Z,100071.59
2019-04-25T17:47:17.996Z,100070.73
2019-04-25T17:49:47.511Z,100072.34
2019-04-25T17:52:17.032Z,100072.82
2019-04-25T17:54:47.319Z,100067.09
2019-04-25T17:57:16.846Z,100061.89
2019-04-25T17:59:46.369Z,100054.02
2019-04-25T18:02:17.996Z,100060.66
2019-04-25T18:04:47.958Z,100060.42
2019-04-25T18:07:17.615Z,100051.38
2019-04-25T18:09:47.212Z,100065.23
2019-04-25T18:12:16.823Z,100058.97
2019-04-25T18:14:46.448Z,100056.52
2019-04-25T18:17:16.401Z,100057.69
2019-04-25T18:19:50.959Z,100059.59
2019-04-25T18:22:39.542Z,100054.84
2019-04-25T18:25:34.439Z,100056.37
2019-04-25T18:28:13.105Z,100053.77
2019-04-25T18:30:43.367Z,100051.16
2019-04-25T18:33:29.429Z,100049.84
2019-04-25T18:36:05.317Z,100047.73
2019-04-25T18:38:43.781Z,100052.91
2019-04-25T18:41:18.873Z,100046.45
2019-04-25T18:43:51.509Z,100050.09
2019-04-25T18:46:26.062Z,100052.70
2019-04-25T18:48:55.893Z,100054.34
2019-04-25T18:51:25.499Z,100052.97
2019-04-25T18:54:29.277Z,100059.12
2019-04-25T18:57:06.621Z,100058.40
2019-04-25T18:59:54.261Z,100057.28
2019-04-25T19:02:49.091Z,100056.16
2019-04-25T19:05:36.706Z,100067.54
2019-04-25T19:08:06.391Z,100071.50
2019-04-25T19:10:35.989Z,100077.05
2019-04-25T19:13:12.576Z,100070.45
2019-04-25T19:15:36.893Z,100078.90
2019-04-25T19:18:06.519Z,100074.53
2019-04-25T19:20:36.175Z,100072.95
2019-04-25T19:23:05.758Z,100074.45
2019-04-25T19:25:35.306Z,100066.17
2019-04-25T19:28:06.199Z,100070.92
2019-04-25T19:30:35.808Z,100066.22
2019-04-25T19:33:07.582Z,100063.83
2019-04-25T19:35:37.647Z,100047.84
2019-04-25T19:38:07.637Z,100041.39
2019-04-25T19:40:56.354Z,100054.98
2019-04-25T19:43:45.001Z,100054.77
2019-04-25T19:46:14.612Z,100048.62
2019-04-25T19:48:44.894Z,100047.92
2019-04-25T19:51:15.548Z,100048.77
2019-04-25T19:53:45.119Z,100048.25
2019-04-25T19:56:14.756Z,100052.44
2019-04-25T19:58:44.297Z,100044.86
2019-04-25T20:01:13.814Z,100042.55
2019-04-25T20:03:54.988Z,100042.22
2019-04-25T20:06:42.237Z,100040.56
2019-04-25T20:09:34.700Z,100039.19
2019-04-25T20:12:04.425Z,100046.77
2019-04-25T20:14:33.971Z,100047.95
2019-04-25T20:17:03.508Z,100050.06
2019-04-25T20:19:33.133Z,100050.74
2019-04-25T20:22:02.643Z,100041.56
2019-04-25T20:24:33.160Z,100038.93
2019-04-25T20:27:02.701Z,100036.72
2019-04-25T20:29:32.400Z,100027.50
2019-04-25T20:32:01.927Z,100025.39
2019-04-25T20:34:31.456Z,100019.09
2019-04-25T20:37:01.086Z,100022.06
2019-04-25T20:39:30.600Z,100019.58
2019-04-25T20:42:00.259Z,100020.23
2019-04-25T20:44:29.807Z,100024.22
2019-04-25T20:46:59.330Z,100024.70
2019-04-25T20:49:28.876Z,100024.13
2019-04-25T20:51:58.436Z,100020.76
2019-04-25T20:54:29.059Z,100019.09
2019-04-25T20:56:58.577Z,100017.02
2019-04-25T20:59:28.095Z,100018.58
2019-04-25T21:01:57.767Z,100020.98
2019-04-25T21:04:39.401Z,100031.05
2019-04-25T21:07:09.038Z,100026.17
2019-04-25T21:09:39.020Z,100032.36
2019-04-25T21:12:08.688Z,100029.87
2019-04-25T21:14:53.495Z,100031.61
2019-04-25T21:17:26.768Z,100025.06
2019-04-25T21:19:57.082Z,100032.34
2019-04-25T21:22:26.853Z,100113.11
2019-04-25T21:24:56.380Z,100117.94
2019-04-25T21:27:25.904Z,100124.84
2019-04-25T21:29:55.633Z,100154.03
2019-04-25T21:32:26.225Z,100147.52
2019-04-25T21:34:56.892Z,100157.03
2019-04-25T21:37:26.917Z,100155.58
2019-04-25T21:40:02.897Z,100155.49
2019-04-25T21:42:37.939Z,100162.93
2019-04-25T21:45:07.735Z,100194.22
2019-04-25T21:47:37.251Z,100186.37
2019-04-25T21:50:07.402Z,100204.48
2019-04-25T21:52:37.156Z,100205.34
2019-04-25T21:55:07.045Z,100211.48
2019-04-25T21:57:36.835Z,100224.73
2019-04-25T22:00:10.006Z,100227.53
2019-04-25T22:02:41.419Z,100230.89
2019-04-25T22:05:11.695Z,100228.52
2019-04-25T22:07:41.557Z,100239.26
2019-04-25T22:10:11.327Z,100253.41
2019-04-25T22:12:40.942Z,100251.50
2019-04-25T22:15:13.292Z,100250.87
2019-04-25T22:17:43.179Z,100263.28
2019-04-25T22:20:12.951Z,100272.25
2019-04-25T22:22:42.893Z,100293.38
2019-04-25T22:25:12.491Z,100293.03
2019-04-25T22:27:42.104Z,100295.39
2019-04-25T22:30:13.336Z,100303.48
2019-04-25T22:33:08.255Z,100305.55
2019-04-25T22:35:53.702Z,100313.80
2019-04-25T22:38:23.495Z,100316.44
2019-04-25T22:40:53.028Z,100315.22
2019-04-25T22:43:22.808Z,100317.36
2019-04-25T22:45:52.598Z,100322.25
2019-04-25T22:48:35.902Z,100328.89
2019-04-25T22:51:05.851Z,100329.89
2019-04-25T22:53:35.420Z,100327.84
2019-04-25T22:56:05.321Z,100328.77
2019-04-25T22:58:34.943Z,100326.02
2019-04-25T23:01:07.076Z,100329.89
2019-04-25T23:03:40.704Z,100330.77
2019-04-25T23:06:10.226Z,100326.80
2019-04-25T23:20:31.633Z,100318.70
2019-04-25T23:23:01.146Z,100319.77
2019-04-25T23:25:36.233Z,100315.14
2019-04-25T23:28:16.348Z,100311.68
2019-04-25T23:31:05.388Z,100303.38
2019-04-25T23:33:36.388Z,100303.27
2019-04-25T23:36:07.025Z,100307.95
2019-04-25T23:38:36.613Z,100310.53
2019-04-25T23:41:07.215Z,100304.48
2019-04-25T23:43:36.812Z,100304.38
2019-04-25T23:46:07.286Z,100308.77
2019-04-25T23:48:37.558Z,100309.15
2019-04-25T23:51:08.009Z,100312.75
2019-04-25T23:53:38.481Z,100304.66
2019-04-25T23:56:08.866Z,100295.63
2019-04-25T23:58:38.646Z,100298.20
